createdAt,value
2022-08-26T00:02:13.799Z,19.16
2022-08-26T00:04:46.493Z,19.15
2022-08-26T00:07:17.715Z,19.19
2022-08-26T00:09:50.021Z,19.26
2022-08-26T00:12:21.671Z,19.12
2022-08-26T00:14:59.822Z,19.05
2022-08-26T00:17:30.116Z,19.09
2022-08-26T00:20:01.110Z,19.10
2022-08-26T00:22:29.412Z,19.07
2022-08-26T00:25:00.377Z,19.05
2022-08-26T00:27:34.064Z,18.91
2022-08-26T00:30:06.806Z,18.97
2022-08-26T00:32:39.639Z,18.83
2022-08-26T00:35:13.351Z,18.78
2022-08-26T00:37:48.206Z,18.74
2022-08-26T00:40:22.753Z,18.76
2022-08-26T00:42:50.888Z,18.84
2022-08-26T00:45:25.530Z,18.70
2022-08-26T00:47:59.006Z,18.66
2022-08-26T00:50:31.134Z,18.74
2022-08-26T00:53:05.072Z,18.75
2022-08-26T00:55:39.902Z,18.67
2022-08-26T00:58:11.905Z,18.71
2022-08-26T01:00:40.266Z,18.67
2022-08-26T01:03:12.738Z,18.66
2022-08-26T01:05:44.344Z,18.60
2022-08-26T01:08:12.882Z,18.49
2022-08-26T01:10:41.845Z,18.45
2022-08-26T01:13:14.316Z,18.56
2022-08-26T01:15:46.582Z,18.48
2022-08-26T01:18:19.668Z,18.40
2022-08-26T01:21:00.444Z,18.37
2022-08-26T01:23:37.230Z,18.46
2022-08-26T01:26:19.478Z,18.31
2022-08-26T01:28:52.363Z,18.32
2022-08-26T01:31:29.748Z,18.32
2022-08-26T01:34:11.255Z,18.17
2022-08-26T01:36:40.782Z,18.09
2022-08-26T01:39:11.802Z,18.13
2022-08-26T01:41:44.057Z,17.95
2022-08-26T01:44:18.833Z,17.91
2022-08-26T01:46:51.652Z,18.03
2022-08-26T01:49:22.495Z,17.88
2022-08-26T01:51:55.071Z,17.88
2022-08-26T01:54:25.996Z,17.83
2022-08-26T01:56:58.845Z,17.91
2022-08-26T01:59:30.984Z,17.91
2022-08-26T02:01:59.752Z,17.89
2022-08-26T02:04:32.583Z,17.76
2022-08-26T02:07:06.022Z,17.73
2022-08-26T02:09:43.725Z,17.74
2022-08-26T02:12:17.432Z,17.83
2022-08-26T02:14:51.298Z,17.84
2022-08-26T02:17:22.094Z,17.64
2022-08-26T02:19:51.353Z,17.69
2022-08-26T02:22:21.971Z,17.68
2022-08-26T02:24:56.805Z,17.63
2022-08-26T02:27:32.129Z,17.72
2022-08-26T02:30:10.717Z,17.55
2022-08-26T02:32:40.233Z,17.54
2022-08-26T02:35:11.463Z,17.58
2022-08-26T02:37:41.828Z,17.43
2022-08-26T02:40:14.601Z,17.43
2022-08-26T02:42:43.230Z,17.35
2022-08-26T02:45:13.034Z,17.45
2022-08-26T02:47:45.231Z,17.31
2022-08-26T02:50:15.625Z,17.28
2022-08-26T02:52:48.567Z,17.34
2022-08-26T02:55:18.804Z,17.35
2022-08-26T02:57:50.220Z,17.31
2022-08-26T03:00:20.448Z,17.28
2022-08-26T03:02:54.683Z,17.14
2022-08-26T03:05:26.188Z,17.18
2022-08-26T03:07:54.605Z,17.11
2022-08-26T03:10:26.051Z,17.22
2022-08-26T03:12:54.484Z,17.04
2022-08-26T03:15:25.762Z,17.09
2022-08-26T03:17:57.188Z,17.04
2022-08-26T03:20:26.053Z,16.99
2022-08-26T03:22:57.188Z,16.96
2022-08-26T03:25:30.148Z,17.00
2022-08-26T03:28:01.211Z,17.00
2022-08-26T03:30:45.083Z,17.13
2022-08-26T03:33:15.453Z,17.03
2022-08-26T03:35:45.863Z,17.05
2022-08-26T03:38:16.933Z,17.03
2022-08-26T03:40:48.639Z,17.11
2022-08-26T03:43:22.592Z,17.13
2022-08-26T03:45:54.445Z,17.01
2022-08-26T03:48:23.592Z,17.01
2022-08-26T03:50:54.603Z,17.13
2022-08-26T03:53:27.043Z,17.12
2022-08-26T03:56:02.743Z,17.13
2022-08-26T03:58:32.291Z,17.13
2022-08-26T04:01:03.926Z,17.03
2022-08-26T04:03:50.141Z,17.17
2022-08-26T04:06:18.884Z,17.22
2022-08-26T04:08:48.603Z,17.15
2022-08-26T04:11:25.824Z,17.10
2022-08-26T04:13:57.646Z,17.07
2022-08-26T04:16:30.075Z,17.19
2022-08-26T04:19:01.764Z,17.13
2022-08-26T04:21:32.812Z,17.13
2022-08-26T04:24:03.566Z,17.33
2022-08-26T04:26:42.792Z,17.35
2022-08-26T04:29:18.230Z,17.32
2022-08-26T04:31:49.329Z,17.37
2022-08-26T04:34:21.105Z,17.43
2022-08-26T04:36:53.094Z,17.53
2022-08-26T04:39:21.737Z,17.71
2022-08-26T04:41:58.398Z,17.72
2022-08-26T04:44:31.600Z,17.84
2022-08-26T04:46:59.862Z,17.94
2022-08-26T04:49:35.454Z,18.04
2022-08-26T04:52:07.051Z,18.29
2022-08-26T04:54:36.193Z,18.25
2022-08-26T04:57:06.475Z,18.45
2022-08-26T04:59:38.966Z,18.45
2022-08-26T05:02:10.862Z,18.54
2022-08-26T05:04:43.810Z,18.66
2022-08-26T05:07:12.412Z,18.77
2022-08-26T05:09:41.825Z,18.94
2022-08-26T05:12:11.567Z,18.94
2022-08-26T05:14:41.598Z,19.06
2022-08-26T05:17:15.293Z,19.17
2022-08-26T05:19:46.522Z,19.29
2022-08-26T05:22:15.026Z,19.29
2022-08-26T05:24:43.407Z,19.50
2022-08-26T05:27:13.218Z,19.54
2022-08-26T05:29:41.701Z,19.61
2022-08-26T05:32:11.277Z,19.66
2022-08-26T05:34:39.705Z,19.76
2022-08-26T05:37:11.289Z,19.83
2022-08-26T05:39:51.047Z,19.92
2022-08-26T05:42:21.626Z,20.11
2022-08-26T05:44:56.777Z,20.11
2022-08-26T05:47:27.905Z,20.28
2022-08-26T05:49:56.229Z,20.44
2022-08-26T05:52:27.403Z,20.49
2022-08-26T05:54:59.329Z,20.73
2022-08-26T05:57:32.395Z,20.85
2022-08-26T06:00:00.864Z,20.93
2022-08-26T06:02:29.368Z,21.08
2022-08-26T06:05:00.694Z,21.09
2022-08-26T06:07:43.239Z,21.16
2022-08-26T06:10:32.538Z,21.34
2022-08-26T06:13:11.571Z,21.40
2022-08-26T06:15:45.852Z,21.49
2022-08-26T06:18:15.873Z,21.56
2022-08-26T06:20:57.195Z,21.66
2022-08-26T06:23:56.582Z,21.75
2022-08-26T06:26:27.865Z,21.91
2022-08-26T06:28:57.571Z,22.13
2022-08-26T06:31:26.193Z,22.21
2022-08-26T06:33:59.069Z,22.25
2022-08-26T06:36:35.199Z,22.30
2022-08-26T06:39:09.566Z,22.42
2022-08-26T06:41:43.452Z,22.61
2022-08-26T06:44:16.955Z,22.85
2022-08-26T06:46:50.498Z,23.00
2022-08-26T06:49:27.019Z,23.11
2022-08-26T06:51:58.588Z,23.27
2022-08-26T06:54:27.462Z,23.28
2022-08-26T06:56:58.771Z,23.40
2022-08-26T06:59:28.606Z,23.52
2022-08-26T07:01:57.703Z,23.67
2022-08-26T07:04:29.838Z,23.93
2022-08-26T07:06:58.375Z,24.02
2022-08-26T07:09:33.237Z,24.27
2022-08-26T07:12:01.995Z,24.40
2022-08-26T07:14:35.765Z,24.41
2022-08-26T07:17:04.122Z,24.66
2022-08-26T07:19:35.027Z,24.82
2022-08-26T07:22:05.809Z,24.82
2022-08-26T07:24:35.732Z,24.91
2022-08-26T07:27:05.919Z,25.01
2022-08-26T07:29:39.234Z,25.08
2022-08-26T07:32:08.174Z,25.12
2022-08-26T07:34:38.303Z,25.32
2022-08-26T07:37:09.867Z,25.46
2022-08-26T07:39:41.824Z,25.55
2022-08-26T07:42:15.707Z,25.57
2022-08-26T07:44:48.591Z,25.76
2022-08-26T07:47:24.923Z,25.82
2022-08-26T07:49:55.920Z,25.92
2022-08-26T07:52:27.030Z,26.01
2022-08-26T07:54:56.831Z,26.13
2022-08-26T07:57:29.576Z,26.16
2022-08-26T08:00:01.454Z,26.19
2022-08-26T08:02:30.467Z,26.24
2022-08-26T08:05:02.275Z,26.31
2022-08-26T08:07:44.620Z,26.45
2022-08-26T08:10:25.908Z,26.52
2022-08-26T08:12:55.284Z,26.68
2022-08-26T08:15:29.999Z,26.84
2022-08-26T08:18:00.656Z,27.00
2022-08-26T08:20:30.079Z,27.03
2022-08-26T08:22:58.883Z,27.20
2022-08-26T08:25:29.316Z,27.17
2022-08-26T08:27:57.644Z,27.34
2022-08-26T08:30:27.768Z,27.27
2022-08-26T08:32:56.679Z,27.42
2022-08-26T08:35:29.184Z,27.45
2022-08-26T08:37:58.267Z,27.59
2022-08-26T08:40:29.632Z,27.49
2022-08-26T08:43:07.150Z,27.59
2022-08-26T08:45:44.038Z,27.63
2022-08-26T08:48:27.328Z,27.80
2022-08-26T08:51:05.975Z,27.85
2022-08-26T08:53:37.754Z,27.99
2022-08-26T08:56:13.899Z,28.05
2022-08-26T08:58:53.561Z,28.12
2022-08-26T09:01:43.518Z,28.27
2022-08-26T09:04:34.115Z,28.24
2022-08-26T09:07:08.396Z,28.36
2022-08-26T09:09:47.614Z,28.44
2022-08-26T09:12:20.621Z,28.50
2022-08-26T09:15:02.903Z,28.65
2022-08-26T09:17:44.944Z,28.66
2022-08-26T09:20:22.130Z,28.82
2022-08-26T09:22:51.558Z,28.82
2022-08-26T09:25:19.797Z,28.98
2022-08-26T09:27:51.123Z,29.11
2022-08-26T09:30:30.498Z,29.21
2022-08-26T09:33:10.176Z,29.26
2022-08-26T09:35:40.796Z,29.41
2022-08-26T09:38:27.979Z,29.48
2022-08-26T09:40:59.391Z,29.39
2022-08-26T09:43:29.382Z,29.41
2022-08-26T09:46:15.914Z,29.44
2022-08-26T09:48:45.755Z,29.51
2022-08-26T09:51:30.237Z,29.60
2022-08-26T09:54:01.199Z,29.75
2022-08-26T09:56:34.806Z,29.75
2022-08-26T09:59:06.563Z,29.89
2022-08-26T10:01:43.072Z,29.87
2022-08-26T10:04:16.019Z,29.92
2022-08-26T10:06:57.036Z,30.07
2022-08-26T10:09:31.085Z,30.08
2022-08-26T10:12:03.560Z,30.08
2022-08-26T10:14:35.656Z,30.18
2022-08-26T10:17:10.599Z,30.29
2022-08-26T10:19:56.765Z,30.30
2022-08-26T10:22:32.949Z,30.47
2022-08-26T10:25:09.470Z,30.57
2022-08-26T10:27:52.801Z,30.65
2022-08-26T10:30:29.619Z,30.65
2022-08-26T10:33:03.436Z,30.71
2022-08-26T10:35:35.670Z,30.74
2022-08-26T10:38:10.379Z,30.96
2022-08-26T10:40:49.683Z,31.05
2022-08-26T10:43:23.687Z,31.14
2022-08-26T10:45:58.414Z,31.18
2022-08-26T10:48:40.053Z,31.28
2022-08-26T10:51:16.442Z,31.21
2022-08-26T10:53:56.002Z,31.23
2022-08-26T10:56:39.308Z,31.32
2022-08-26T10:59:14.654Z,31.35
2022-08-26T11:01:51.103Z,31.46
2022-08-26T11:04:44.491Z,31.45
2022-08-26T11:07:41.988Z,31.34
2022-08-26T11:10:15.606Z,31.28
2022-08-26T11:13:01.768Z,31.24
2022-08-26T11:16:01.226Z,31.44
2022-08-26T11:18:47.182Z,31.40
2022-08-26T11:21:53.061Z,31.36
2022-08-26T11:24:48.455Z,31.58
2022-08-26T11:27:59.759Z,31.69
2022-08-26T11:30:56.880Z,31.66
2022-08-26T11:33:59.950Z,31.83
2022-08-26T11:36:39.428Z,31.75
2022-08-26T11:39:19.000Z,31.70
2022-08-26T11:41:53.889Z,31.67
2022-08-26T11:44:24.393Z,31.89
2022-08-26T11:46:58.059Z,32.01
2022-08-26T11:49:27.102Z,32.07
2022-08-26T11:52:13.243Z,32.13
2022-08-26T11:54:41.543Z,32.36
2022-08-26T11:57:14.773Z,32.48
2022-08-26T11:59:43.607Z,32.33
2022-08-26T12:02:20.329Z,32.22
2022-08-26T12:04:54.324Z,32.28
2022-08-26T12:07:27.187Z,32.24
2022-08-26T12:09:58.447Z,32.33
2022-08-26T12:12:35.244Z,32.39
2022-08-26T12:15:19.856Z,32.56
2022-08-26T12:17:54.431Z,32.84
2022-08-26T12:20:46.122Z,32.90
2022-08-26T12:23:31.518Z,32.88
2022-08-26T12:26:08.590Z,32.93
2022-08-26T12:28:46.424Z,32.87
2022-08-26T12:31:23.537Z,32.94
2022-08-26T12:33:52.598Z,33.01
2022-08-26T12:36:28.936Z,32.95
2022-08-26T12:39:08.933Z,32.90
2022-08-26T12:41:47.126Z,32.95
2022-08-26T12:44:37.858Z,33.23
2022-08-26T12:47:11.756Z,33.38
2022-08-26T12:49:42.609Z,33.81
2022-08-26T12:52:30.123Z,34.44
2022-08-26T12:55:02.597Z,35.07
2022-08-26T12:57:35.270Z,35.96
2022-08-26T13:00:40.820Z,37.35
2022-08-26T13:03:43.955Z,38.83
2022-08-26T13:06:29.787Z,40.86
2022-08-26T13:09:00.717Z,42.77
2022-08-26T13:11:31.659Z,44.19
2022-08-26T13:14:01.945Z,46.07
2022-08-26T13:16:30.758Z,47.51
2022-08-26T13:19:10.218Z,49.10
2022-08-26T13:21:47.933Z,50.47
2022-08-26T13:24:22.313Z,51.22
2022-08-26T13:26:53.770Z,51.65
2022-08-26T13:29:25.871Z,51.64
2022-08-26T13:31:57.557Z,51.40
2022-08-26T13:34:32.247Z,51.65
2022-08-26T13:37:04.889Z,52.01
2022-08-26T13:39:36.155Z,51.91
2022-08-26T13:42:14.427Z,52.14
2022-08-26T13:45:07.099Z,52.35
2022-08-26T13:47:43.520Z,52.38
2022-08-26T13:50:35.422Z,52.86
2022-08-26T13:53:29.707Z,52.96
2022-08-26T13:56:13.476Z,51.91
2022-08-26T13:58:46.455Z,51.40
2022-08-26T14:01:19.347Z,51.60
2022-08-26T14:03:56.295Z,52.52
2022-08-26T14:06:56.143Z,53.31
2022-08-26T14:09:40.843Z,53.45
2022-08-26T14:12:30.268Z,53.44
2022-08-26T14:18:42.481Z,53.52
2022-08-26T14:21:50.122Z,53.58
2022-08-26T14:28:12.843Z,53.24
2022-08-26T14:31:13.087Z,53.19
2022-08-26T14:34:01.628Z,53.78
2022-08-26T14:36:49.401Z,53.61
2022-08-26T14:39:40.685Z,53.19
2022-08-26T14:42:31.572Z,53.32
2022-08-26T14:45:32.366Z,53.60
2022-08-26T14:48:34.464Z,54.28
2022-08-26T14:51:43.644Z,53.67
2022-08-26T14:58:12.826Z,53.38
2022-08-26T15:01:21.242Z,52.72
2022-08-26T15:03:53.254Z,52.57
2022-08-26T15:06:27.710Z,52.25
2022-08-26T15:09:02.430Z,51.88
2022-08-26T15:11:35.210Z,51.43
2022-08-26T15:14:04.059Z,51.01
2022-08-26T15:16:33.459Z,51.23
2022-08-26T15:19:08.827Z,51.64
2022-08-26T15:21:40.774Z,51.80
2022-08-26T15:24:13.776Z,51.82
2022-08-26T15:26:49.675Z,51.66
2022-08-26T15:29:20.151Z,51.56
2022-08-26T15:31:52.381Z,51.08
2022-08-26T15:34:28.814Z,50.23
2022-08-26T15:37:06.380Z,49.59
2022-08-26T15:39:37.492Z,49.25
2022-08-26T15:42:10.133Z,48.81
2022-08-26T15:44:38.549Z,48.74
2022-08-26T15:47:07.274Z,48.66
2022-08-26T15:49:36.724Z,48.60
2022-08-26T15:52:05.579Z,48.35
2022-08-26T15:54:34.562Z,48.14
2022-08-26T15:57:05.344Z,47.84
2022-08-26T15:59:35.887Z,47.71
2022-08-26T16:02:05.428Z,47.67
2022-08-26T16:04:33.849Z,47.64
2022-08-26T16:07:02.299Z,47.38
2022-08-26T16:09:33.902Z,47.08
2022-08-26T16:12:02.254Z,46.64
2022-08-26T16:14:30.648Z,46.42
2022-08-26T16:17:00.273Z,46.24
2022-08-26T16:19:28.659Z,45.91
2022-08-26T16:21:56.920Z,45.42
2022-08-26T16:24:30.519Z,44.99
2022-08-26T16:26:59.069Z,44.38
2022-08-26T16:29:27.875Z,43.89
2022-08-26T16:32:03.572Z,43.59
2022-08-26T16:34:31.778Z,43.17
2022-08-26T16:37:00.754Z,42.80
2022-08-26T16:39:29.093Z,42.31
2022-08-26T16:42:00.008Z,41.79
2022-08-26T16:44:30.854Z,41.15
2022-08-26T16:47:00.515Z,40.26
2022-08-26T16:49:29.029Z,39.23
2022-08-26T16:51:57.381Z,38.10
2022-08-26T16:54:25.673Z,37.01
2022-08-26T16:56:54.001Z,36.03
2022-08-26T16:59:22.261Z,35.00
2022-08-26T17:01:50.704Z,34.19
2022-08-26T17:04:21.986Z,33.43
2022-08-26T17:06:53.065Z,32.74
2022-08-26T17:09:21.465Z,32.16
2022-08-26T17:11:50.459Z,31.60
2022-08-26T17:14:18.770Z,30.99
2022-08-26T17:16:51.235Z,30.52
2022-08-26T17:19:24.128Z,30.05
2022-08-26T17:21:52.928Z,29.67
2022-08-26T17:24:21.228Z,29.33
2022-08-26T17:26:50.747Z,29.07
2022-08-26T17:29:26.554Z,28.72
2022-08-26T17:31:54.980Z,28.32
2022-08-26T17:34:24.816Z,27.98
2022-08-26T17:36:53.678Z,27.79
2022-08-26T17:39:21.842Z,27.50
2022-08-26T17:41:50.227Z,27.17
2022-08-26T17:44:18.516Z,26.93
2022-08-26T17:46:53.015Z,26.71
2022-08-26T17:49:25.421Z,26.61
2022-08-26T17:51:53.770Z,26.36
2022-08-26T17:54:22.117Z,26.24
2022-08-26T17:56:50.430Z,26.07
2022-08-26T17:59:18.850Z,25.86
2022-08-26T18:01:47.197Z,25.62
2022-08-26T18:04:16.144Z,25.41
2022-08-26T18:06:46.008Z,25.31
2022-08-26T18:09:14.320Z,25.08
2022-08-26T18:11:45.630Z,24.96
2022-08-26T18:14:13.950Z,24.80
2022-08-26T18:16:44.951Z,24.74
2022-08-26T18:19:13.341Z,24.66
2022-08-26T18:21:41.669Z,24.58
2022-08-26T18:24:14.082Z,24.46
2022-08-26T18:26:49.021Z,24.28
2022-08-26T18:29:18.302Z,24.13
2022-08-26T18:31:46.610Z,23.89
2022-08-26T18:34:17.326Z,23.72
2022-08-26T18:36:45.742Z,23.62
2022-08-26T18:39:16.322Z,23.39
2022-08-26T18:41:46.773Z,23.25
2022-08-26T18:44:16.713Z,23.16
2022-08-26T18:46:46.557Z,23.15
2022-08-26T18:49:16.886Z,22.95
2022-08-26T18:51:46.761Z,22.91
2022-08-26T18:56:55.747Z,22.83
2022-08-26T18:59:26.781Z,22.80
2022-08-26T19:02:01.918Z,22.75
2022-08-26T19:04:33.330Z,22.67
2022-08-26T19:07:01.660Z,22.68
2022-08-26T19:09:31.810Z,22.68
2022-08-26T19:12:00.988Z,22.60
2022-08-26T19:14:30.227Z,22.51
2022-08-26T19:16:59.036Z,22.59
2022-08-26T19:19:31.897Z,22.46
2022-08-26T19:22:00.654Z,22.37
2022-08-26T19:24:33.568Z,22.40
2022-08-26T19:27:05.795Z,22.29
2022-08-26T19:29:38.132Z,22.11
2022-08-26T19:32:07.308Z,22.04
2022-08-26T19:34:36.450Z,22.03
2022-08-26T19:37:07.465Z,21.92
2022-08-26T19:39:37.609Z,21.93
2022-08-26T19:42:08.944Z,21.87
2022-08-26T19:44:54.620Z,21.72
2022-08-26T19:47:23.042Z,21.69
2022-08-26T19:49:54.469Z,21.63
2022-08-26T19:52:30.170Z,21.45
2022-08-26T19:55:03.539Z,21.48
2022-08-26T19:57:32.058Z,21.31
2022-08-26T20:00:07.029Z,21.25
2022-08-26T20:02:35.847Z,21.18
2022-08-26T20:05:05.173Z,21.25
2022-08-26T20:07:36.232Z,21.24
2022-08-26T20:10:07.383Z,21.08
2022-08-26T20:12:36.086Z,21.11
2022-08-26T20:15:06.199Z,21.08
2022-08-26T20:17:40.219Z,20.92
2022-08-26T20:20:33.234Z,20.81
2022-08-26T20:23:05.724Z,20.81
2022-08-26T20:25:38.637Z,20.68
2022-08-26T20:28:07.075Z,20.66
2022-08-26T20:30:35.441Z,20.53
2022-08-26T20:33:06.914Z,20.35
2022-08-26T20:35:35.276Z,20.37
2022-08-26T20:38:03.620Z,20.31
2022-08-26T20:40:32.609Z,20.30
2022-08-26T20:43:02.422Z,20.24
2022-08-26T20:45:30.783Z,20.31
2022-08-26T20:47:59.235Z,20.17
2022-08-26T20:50:32.830Z,20.14
2022-08-26T20:53:01.558Z,20.10
2022-08-26T20:55:29.883Z,20.17
2022-08-26T20:57:58.476Z,20.13
2022-08-26T21:00:29.002Z,20.11
2022-08-26T21:02:57.580Z,20.10
2022-08-26T21:05:28.952Z,20.06
2022-08-26T21:07:58.255Z,19.95
2022-08-26T21:10:29.245Z,20.04
2022-08-26T21:12:58.324Z,19.87
2022-08-26T21:15:31.970Z,19.82
2022-08-26T21:18:00.596Z,19.73
2022-08-26T21:20:32.706Z,19.73
2022-08-26T21:23:01.014Z,19.50
2022-08-26T21:25:29.407Z,19.48
2022-08-26T21:27:58.699Z,19.37
2022-08-26T21:30:28.612Z,19.33
2022-08-26T21:32:59.539Z,19.40
2022-08-26T21:35:27.872Z,19.31
2022-08-26T21:37:59.327Z,19.39
2022-08-26T21:40:31.615Z,19.26
2022-08-26T21:43:00.047Z,19.35
2022-08-26T21:45:29.910Z,19.28
2022-08-26T21:48:01.293Z,19.33
2022-08-26T21:50:30.744Z,19.36
2022-08-26T21:53:02.019Z,19.36
2022-08-26T21:55:30.433Z,19.21
2022-08-26T21:57:58.749Z,19.18
2022-08-26T22:00:31.487Z,19.27
2022-08-26T22:03:00.818Z,19.12
2022-08-26T22:05:32.648Z,19.20
2022-08-26T22:08:01.023Z,19.09
2022-08-26T22:10:29.468Z,19.07
2022-08-26T22:12:57.768Z,18.97
2022-08-26T22:15:27.666Z,18.98
2022-08-26T22:17:57.493Z,18.82
2022-08-26T22:20:28.688Z,18.76
2022-08-26T22:23:01.102Z,18.81
2022-08-26T22:25:29.616Z,18.65
2022-08-26T22:27:58.144Z,18.62
2022-08-26T22:30:29.207Z,18.62
2022-08-26T22:33:01.753Z,18.51
2022-08-26T22:35:30.119Z,18.46
2022-08-26T22:37:58.833Z,18.40
2022-08-26T22:40:30.000Z,18.47
2022-08-26T22:42:58.704Z,18.51
2022-08-26T22:45:28.614Z,18.45
2022-08-26T22:48:01.800Z,18.52
2022-08-26T22:50:32.769Z,18.43
2022-08-26T22:53:01.145Z,18.46
2022-08-26T22:55:32.090Z,18.54
2022-08-26T22:58:00.681Z,18.49
2022-08-26T23:00:31.992Z,18.39
2022-08-26T23:03:03.426Z,18.35
2022-08-26T23:05:32.235Z,18.35
2022-08-26T23:08:00.889Z,18.37
2022-08-26T23:10:30.550Z,18.29
2022-08-26T23:12:58.986Z,18.18
2022-08-26T23:15:30.459Z,18.25
2022-08-26T23:17:59.120Z,18.14
2022-08-26T23:20:29.841Z,18.15
2022-08-26T23:22:58.740Z,18.03
2022-08-26T23:25:28.130Z,18.13
2022-08-26T23:27:56.862Z,18.07
2022-08-26T23:30:27.626Z,17.96
2022-08-26T23:32:58.818Z,17.93
2022-08-26T23:35:30.497Z,17.88
2022-08-26T23:37:59.158Z,17.98
2022-08-26T23:40:32.261Z,17.85
2022-08-26T23:43:03.376Z,17.94
2022-08-26T23:45:32.759Z,17.79
2022-08-26T23:48:04.293Z,17.88
2022-08-26T23:50:51.777Z,17.79
2022-08-26T23:53:26.647Z,17.63
2022-08-26T23:55:57.425Z,17.73
2022-08-26T23:58:25.677Z,17.65
